Time;durP1;ratioP1;P1;durP2;ratioP2;P2;SDS_P1;SDS_P2;PMS_P1;PMS_P2;Temp;Humidity;BMP_temperature;BMP_pressure;BME280_temperature;BME280_humidity;BME280_pressure;Samples;Min_cycle;Max_cycle;Signal;HPM_P1;HPM_P2
2023/05/12 00:01:13;;;;;;;29.70;14.30;;;12.00;99.90;;;;;;4994439;28;20068;-74
2023/05/12 00:03:39;;;;;;;30.75;14.65;;;12.00;99.90;;;;;;4994845;28;20042;-73
2023/05/12 00:06:05;;;;;;;32.45;17.48;;;12.00;99.90;;;;;;4994723;28;20105;-72
2023/05/12 00:08:31;;;;;;;36.50;17.67;;;12.00;99.90;;;;;;4996053;28;20057;-73
2023/05/12 00:10:57;;;;;;;39.50;19.63;;;12.00;99.90;;;;;;4995888;28;20046;-74
2023/05/12 00:13:23;;;;;;;41.65;18.95;;;12.00;99.90;;;;;;4995298;28;20050;-74
2023/05/12 00:15:50;;;;;;;36.33;18.17;;;12.00;99.90;;;;;;4995789;28;20100;-73
2023/05/12 00:18:16;;;;;;;37.05;18.45;;;12.00;99.90;;;;;;4995961;28;20053;-73
2023/05/12 00:20:41;;;;;;;30.23;16.95;;;12.00;99.90;;;;;;4994921;28;20526;-71
2023/05/12 00:23:07;;;;;;;37.08;16.70;;;12.00;99.90;;;;;;4993866;28;20057;-74
2023/05/12 00:25:33;;;;;;;33.20;15.05;;;12.00;99.90;;;;;;4995860;28;20462;-74
2023/05/12 00:27:59;;;;;;;28.98;16.08;;;12.00;99.90;;;;;;4995544;28;20494;-73
2023/05/12 00:30:24;;;;;;;31.92;15.98;;;12.00;99.90;;;;;;4994914;28;20057;-74
2023/05/12 00:32:50;;;;;;;31.52;15.40;;;12.00;99.90;;;;;;4994756;28;20042;-73
2023/05/12 00:35:16;;;;;;;35.80;16.30;;;12.00;99.90;;;;;;4994872;28;20097;-73
2023/05/12 00:37:42;;;;;;;31.70;16.00;;;12.00;99.90;;;;;;4994891;28;20042;-73
2023/05/12 00:40:09;;;;;;;34.83;15.40;;;12.00;99.90;;;;;;4994700;28;20518;-73
2023/05/12 00:42:35;;;;;;;29.98;16.10;;;12.00;99.90;;;;;;4977187;28;20042;-74
2023/05/12 00:45:01;;;;;;;30.40;16.00;;;12.00;99.90;;;;;;4994407;28;20490;-73
2023/05/12 00:47:27;;;;;;;27.52;15.27;;;12.00;99.90;;;;;;4993366;28;20046;-73
2023/05/12 00:49:53;;;;;;;29.67;16.08;;;12.00;99.90;;;;;;4994829;28;20479;-74
2023/05/12 00:52:19;;;;;;;27.10;14.10;;;12.00;99.90;;;;;;4994659;28;20049;-75
2023/05/12 00:54:46;;;;;;;27.38;14.80;;;12.00;99.90;;;;;;4994611;28;20081;-71
2023/05/12 00:57:12;;;;;;;29.77;14.05;;;12.00;99.90;;;;;;4993480;28;20062;-74
2023/05/12 00:59:38;;;;;;;27.10;15.02;;;12.00;99.90;;;;;;4994476;28;20042;-74
2023/05/12 01:02:04;;;;;;;26.42;13.73;;;12.00;99.90;;;;;;4993301;28;20088;-74
2023/05/12 01:04:31;;;;;;;29.48;15.93;;;12.00;99.90;;;;;;4993026;28;20505;-75
2023/05/12 01:07:20;;;;;;;31.90;15.80;;;12.00;99.90;;;;;;4994522;28;20050;-74
2023/05/12 01:09:45;;;;;;;33.63;15.25;;;12.00;99.90;;;;;;4993668;28;20085;-74
2023/05/12 01:12:11;;;;;;;28.52;14.77;;;12.00;99.90;;;;;;4994982;28;20084;-75
2023/05/12 01:14:37;;;;;;;34.85;15.27;;;12.00;99.90;;;;;;4994206;28;20512;-74
2023/05/12 01:17:09;;;;;;;32.72;15.27;;;12.00;99.90;;;;;;4992502;28;20042;-74
2023/05/12 01:19:42;;;;;;;29.02;14.63;;;12.00;99.90;;;;;;4994054;28;20474;-73
2023/05/12 01:22:11;;;;;;;38.00;16.20;;;12.00;99.90;;;;;;4994245;28;20050;-73
2023/05/12 01:24:48;;;;;;;30.02;16.05;;;12.00;99.90;;;;;;4994299;28;20054;-74
2023/05/12 01:27:16;;;;;;;35.22;16.88;;;12.00;99.90;;;;;;4995086;28;20100;-74
2023/05/12 01:29:44;;;;;;;28.38;15.05;;;12.00;99.90;;;;;;4977062;28;20050;-74
2023/05/12 01:32:10;;;;;;;27.17;15.57;;;12.10;99.90;;;;;;4994114;28;20129;-74
2023/05/12 01:34:35;;;;;;;30.33;17.02;;;12.10;99.90;;;;;;4992947;28;20125;-73
2023/05/12 01:37:01;;;;;;;35.80;17.25;;;12.10;99.90;;;;;;4976975;28;20050;-74
2023/05/12 01:39:27;;;;;;;33.47;16.42;;;12.10;99.90;;;;;;4994805;28;20058;-74
2023/05/12 01:41:52;;;;;;;32.35;16.10;;;12.10;99.90;;;;;;4994543;28;20081;-73
2023/05/12 01:44:19;;;;;;;32.95;15.90;;;12.10;99.90;;;;;;4992898;28;20057;-74
2023/05/12 01:46:45;;;;;;;32.53;16.83;;;12.10;99.90;;;;;;4993126;28;20124;-74
2023/05/12 01:49:10;;;;;;;33.33;16.95;;;12.10;99.90;;;;;;4994312;28;20050;-74
2023/05/12 01:51:36;;;;;;;31.88;17.27;;;12.10;99.90;;;;;;4993767;28;20046;-74
2023/05/12 01:54:02;;;;;;;37.90;18.50;;;12.10;99.90;;;;;;4992766;28;20038;-74
2023/05/12 01:56:28;;;;;;;39.63;19.17;;;12.10;99.90;;;;;;4993241;28;20401;-73
2023/05/12 01:58:53;;;;;;;39.28;18.92;;;12.10;99.90;;;;;;4993914;28;20097;-74
2023/05/12 02:01:19;;;;;;;39.80;19.08;;;12.00;99.90;;;;;;4992930;28;20043;-74
2023/05/12 02:03:45;;;;;;;40.63;18.98;;;12.00;99.90;;;;;;4993850;28;20053;-74
2023/05/12 02:06:10;;;;;;;40.75;19.13;;;12.00;99.90;;;;;;4993215;28;20359;-74
2023/05/12 02:08:36;;;;;;;37.40;18.63;;;12.00;99.90;;;;;;4992564;28;20038;-74
2023/05/12 02:11:06;;;;;;;44.35;20.23;;;12.00;99.90;;;;;;4994117;28;20082;-73
2023/05/12 02:13:33;;;;;;;44.50;19.88;;;12.00;99.90;;;;;;4993782;28;20080;-73
2023/05/12 02:15:58;;;;;;;41.05;20.45;;;12.00;99.90;;;;;;4993822;28;20454;-73
2023/05/12 02:18:24;;;;;;;38.55;19.15;;;12.00;99.90;;;;;;4993701;28;20124;-73
2023/05/12 02:20:50;;;;;;;33.17;19.55;;;12.00;99.90;;;;;;4993111;28;20189;-74
2023/05/12 02:23:15;;;;;;;40.80;19.92;;;12.00;99.90;;;;;;4993648;28;20133;-74
2023/05/12 02:25:41;;;;;;;43.17;20.98;;;12.00;99.90;;;;;;4994528;28;20054;-74
2023/05/12 02:28:09;;;;;;;39.90;19.88;;;12.00;99.90;;;;;;4996138;28;20048;-74
2023/05/12 02:30:36;;;;;;;47.38;21.40;;;12.00;99.90;;;;;;4997524;28;20073;-73
2023/05/12 02:33:04;;;;;;;40.10;20.30;;;12.00;99.90;;;;;;4997164;28;20058;-74
2023/05/12 02:35:30;;;;;;;43.88;20.05;;;12.00;99.90;;;;;;4997730;28;20062;-73
2023/05/12 02:37:56;;;;;;;50.85;21.90;;;12.00;99.90;;;;;;4996127;28;20445;-73
2023/05/12 02:40:22;;;;;;;44.17;20.55;;;12.00;99.90;;;;;;4980226;28;20050;-73
2023/05/12 02:42:48;;;;;;;40.70;19.65;;;12.00;99.90;;;;;;4996915;28;20050;-73
2023/05/12 02:45:14;;;;;;;46.30;22.45;;;12.00;99.90;;;;;;4996318;28;20133;-73
2023/05/12 02:47:39;;;;;;;45.53;20.52;;;12.00;99.90;;;;;;4996967;28;20050;-73
2023/05/12 02:50:06;;;;;;;53.50;22.40;;;12.00;99.90;;;;;;4996962;28;20053;-73
2023/05/12 02:52:32;;;;;;;50.38;21.60;;;11.90;99.90;;;;;;4996488;28;20557;-72
2023/05/12 02:54:57;;;;;;;46.15;20.75;;;11.90;99.90;;;;;;4996765;28;20137;-72
2023/05/12 02:57:24;;;;;;;47.13;21.17;;;11.90;99.90;;;;;;4995889;28;20046;-72
2023/05/12 02:59:50;;;;;;;42.33;20.27;;;11.90;99.90;;;;;;4996675;28;20054;-72
2023/05/12 03:02:16;;;;;;;46.58;21.50;;;12.00;99.90;;;;;;4995400;28;20112;-72
2023/05/12 03:04:41;;;;;;;43.42;21.35;;;12.00;99.90;;;;;;4996895;28;20542;-72
2023/05/12 03:07:08;;;;;;;49.05;23.60;;;12.00;99.90;;;;;;4996575;28;20133;-71
2023/05/12 03:09:34;;;;;;;49.65;23.17;;;12.00;99.90;;;;;;4997013;28;20050;-71
2023/05/12 03:12:00;;;;;;;54.47;23.48;;;12.00;99.90;;;;;;4995518;28;20038;-72
2023/05/12 03:14:27;;;;;;;54.78;22.83;;;12.00;99.90;;;;;;4995465;28;20047;-72
2023/05/12 03:16:53;;;;;;;43.42;19.52;;;12.00;99.90;;;;;;4996365;28;20054;-72
2023/05/12 03:19:18;;;;;;;38.65;19.27;;;12.00;99.90;;;;;;4996331;28;20379;-71
2023/05/12 03:21:44;;;;;;;42.63;20.77;;;12.00;99.90;;;;;;4995135;28;20367;-72
2023/05/12 03:24:10;;;;;;;41.00;20.30;;;12.00;99.90;;;;;;4995017;28;20081;-72
2023/05/12 03:26:35;;;;;;;54.10;23.27;;;12.10;99.90;;;;;;4996429;28;20042;-73
2023/05/12 03:29:02;;;;;;;51.67;22.35;;;12.10;99.90;;;;;;4995026;28;20109;-73
2023/05/12 03:31:27;;;;;;;42.22;20.77;;;12.10;99.90;;;;;;4996617;28;20058;-72
2023/05/12 03:33:53;;;;;;;48.53;22.02;;;12.10;99.90;;;;;;4996065;28;20092;-72
2023/05/12 03:36:19;;;;;;;46.25;22.30;;;12.10;99.90;;;;;;4995749;28;20081;-72
2023/05/12 03:38:45;;;;;;;44.13;21.60;;;12.10;99.90;;;;;;4993838;28;20050;-72
2023/05/12 03:41:10;;;;;;;47.20;22.48;;;12.00;99.90;;;;;;4995922;28;20042;-72
2023/05/12 03:43:36;;;;;;;46.13;21.73;;;12.10;99.90;;;;;;4996338;28;20042;-71
2023/05/12 03:46:02;;;;;;;49.55;22.67;;;12.00;99.90;;;;;;4996341;28;20038;-72
2023/05/12 03:48:28;;;;;;;53.78;24.00;;;12.10;99.90;;;;;;4995760;28;20160;-72
2023/05/12 03:50:53;;;;;;;59.83;24.60;;;12.00;99.90;;;;;;4996497;28;20466;-72
2023/05/12 03:53:19;;;;;;;46.80;23.23;;;12.10;99.90;;;;;;4995688;28;20136;-72
2023/05/12 03:55:45;;;;;;;53.97;23.42;;;12.10;99.90;;;;;;4995607;28;20050;-73
2023/05/12 03:58:10;;;;;;;44.40;21.10;;;12.00;99.90;;;;;;4996181;28;20459;-72
2023/05/12 04:00:36;;;;;;;54.28;23.48;;;12.10;99.90;;;;;;4994280;28;20058;-72
2023/05/12 04:03:02;;;;;;;46.67;22.65;;;12.00;99.90;;;;;;4994263;28;20049;-72
2023/05/12 04:05:27;;;;;;;58.20;23.38;;;12.00;99.90;;;;;;4995984;28;20051;-73
2023/05/12 04:07:53;;;;;;;48.90;23.20;;;12.00;99.90;;;;;;4995905;28;20386;-72
2023/05/12 04:10:19;;;;;;;51.60;24.77;;;12.10;99.90;;;;;;4996086;28;20133;-72
2023/05/12 04:12:45;;;;;;;45.17;21.38;;;12.00;99.90;;;;;;4994962;28;20047;-72
2023/05/12 04:15:10;;;;;;;47.45;22.38;;;12.10;99.90;;;;;;4995512;28;20085;-72
2023/05/12 04:17:36;;;;;;;41.40;20.92;;;12.10;99.90;;;;;;4995757;28;20463;-71
2023/05/12 04:20:03;;;;;;;44.85;22.02;;;12.00;99.90;;;;;;4978874;28;20120;-72
2023/05/12 04:22:29;;;;;;;53.30;23.23;;;12.10;99.90;;;;;;4995055;28;20073;-72
2023/05/12 04:24:54;;;;;;;46.38;18.88;;;12.10;99.90;;;;;;4995131;28;20062;-72
2023/05/12 04:27:20;;;;;;;17.83;7.53;;;12.10;99.90;;;;;;4995838;28;20158;-72
2023/05/12 04:29:46;;;;;;;59.72;25.17;;;12.10;99.90;;;;;;4994943;28;20046;-72
2023/05/12 04:32:11;;;;;;;45.67;22.60;;;12.10;99.90;;;;;;4995014;28;20042;-71
2023/05/12 04:34:37;;;;;;;50.95;22.98;;;12.10;99.90;;;;;;4994944;28;20371;-72
2023/05/12 04:37:03;;;;;;;44.55;22.75;;;12.10;99.90;;;;;;4993806;28;20181;-72
2023/05/12 04:39:28;;;;;;;55.03;23.98;;;12.10;99.90;;;;;;4994172;28;20042;-72
2023/05/12 04:41:54;;;;;;;50.00;23.58;;;12.10;99.90;;;;;;4995386;28;20425;-72
2023/05/12 04:44:21;;;;;;;59.28;25.73;;;12.10;99.90;;;;;;4993845;28;20050;-73
2023/05/12 04:46:46;;;;;;;51.30;23.92;;;12.10;99.90;;;;;;4994752;28;20057;-72
2023/05/12 04:49:12;;;;;;;59.83;24.42;;;12.10;99.90;;;;;;4977400;28;20050;-72
2023/05/12 04:51:43;;;;;;;55.53;25.02;;;12.10;99.90;;;;;;4994994;28;20046;-72
2023/05/12 04:54:11;;;;;;;48.42;22.42;;;12.10;99.90;;;;;;4995189;28;20125;-71
2023/05/12 04:56:37;;;;;;;45.60;22.33;;;12.10;99.90;;;;;;4994212;28;20066;-71
2023/05/12 04:59:03;;;;;;;53.88;24.60;;;12.10;99.90;;;;;;4994287;28;20129;-71
2023/05/12 05:01:29;;;;;;;49.83;24.10;;;12.20;99.90;;;;;;4993611;28;20062;-72
2023/05/12 05:03:54;;;;;;;51.08;23.35;;;12.10;99.90;;;;;;4994961;28;20368;-71
2023/05/12 05:06:20;;;;;;;55.50;24.42;;;12.20;99.90;;;;;;4995318;28;20047;-71
2023/05/12 05:08:46;;;;;;;52.42;25.88;;;12.20;99.90;;;;;;4994400;28;20426;-71
2023/05/12 05:11:12;;;;;;;52.38;24.98;;;12.20;99.90;;;;;;4994249;28;20053;-71
2023/05/12 05:13:37;;;;;;;41.72;21.42;;;12.20;99.90;;;;;;4994349;28;20046;-71
2023/05/12 05:16:03;;;;;;;54.25;25.15;;;12.30;99.90;;;;;;4994010;28;20046;-71
2023/05/12 05:18:29;;;;;;;59.80;25.05;;;12.30;99.90;;;;;;4994370;28;20042;-71
2023/05/12 05:20:55;;;;;;;48.85;23.40;;;12.30;99.90;;;;;;4977470;28;20546;-71
2023/05/12 05:23:20;;;;;;;56.25;25.23;;;12.30;99.90;;;;;;4994980;28;20362;-71
2023/05/12 05:25:46;;;;;;;46.78;22.58;;;12.40;99.90;;;;;;4994635;28;20489;-71
2023/05/12 05:28:12;;;;;;;44.55;22.10;;;12.40;99.90;;;;;;4994705;28;20086;-71
2023/05/12 05:30:38;;;;;;;41.58;21.55;;;12.40;99.90;;;;;;4993539;28;20113;-72
2023/05/12 05:33:03;;;;;;;45.67;23.33;;;12.40;99.90;;;;;;4994161;28;20367;-72
2023/05/12 05:35:30;;;;;;;46.67;22.95;;;12.50;99.90;;;;;;4994366;28;20363;-72
2023/05/12 05:37:56;;;;;;;45.53;22.65;;;12.50;99.90;;;;;;4992976;28;20046;-72
2023/05/12 05:40:22;;;;;;;45.65;22.33;;;12.50;99.90;;;;;;4993844;28;20105;-72
2023/05/12 05:42:47;;;;;;;46.47;22.50;;;12.50;99.90;;;;;;4992893;28;20486;-72
2023/05/12 05:45:13;;;;;;;49.85;23.08;;;12.50;99.90;;;;;;4994073;28;20077;-71
2023/05/12 05:47:39;;;;;;;38.22;21.98;;;12.50;99.90;;;;;;4994038;28;20104;-72
2023/05/12 05:50:05;;;;;;;40.60;20.85;;;12.60;99.90;;;;;;4993987;28;20052;-72
2023/05/12 05:52:31;;;;;;;44.00;21.67;;;12.60;99.90;;;;;;4994593;28;20100;-72
2023/05/12 05:54:57;;;;;;;45.13;21.92;;;12.60;99.90;;;;;;4994493;28;20421;-72
2023/05/12 05:57:23;;;;;;;41.80;21.13;;;12.70;99.90;;;;;;4993805;28;20450;-72
2023/05/12 05:59:48;;;;;;;41.38;20.35;;;12.70;99.90;;;;;;4993904;28;20092;-72
2023/05/12 06:02:15;;;;;;;42.63;22.40;;;12.70;99.90;;;;;;4995486;28;20173;-72
2023/05/12 06:04:41;;;;;;;42.90;22.05;;;12.70;99.90;;;;;;4997516;28;20054;-72
2023/05/12 06:07:06;;;;;;;43.65;21.42;;;12.80;99.90;;;;;;4998203;28;20391;-73
2023/05/12 06:09:33;;;;;;;43.58;21.98;;;12.80;99.90;;;;;;4997528;28;20099;-71
2023/05/12 06:11:59;;;;;;;45.38;23.80;;;12.80;99.90;;;;;;4997627;28;20062;-72
2023/05/12 06:14:24;;;;;;;47.00;24.27;;;12.90;99.90;;;;;;4997600;28;20054;-73
2023/05/12 06:16:50;;;;;;;43.13;23.00;;;12.90;99.90;;;;;;4980286;28;20050;-72
2023/05/12 06:19:16;;;;;;;43.58;24.45;;;13.00;99.90;;;;;;4996512;28;20050;-73
2023/05/12 06:21:42;;;;;;;45.47;24.58;;;13.00;99.90;;;;;;4981074;28;20073;-73
2023/05/12 06:24:08;;;;;;;48.03;25.17;;;13.00;99.90;;;;;;4997816;28;20054;-73
2023/05/12 06:26:35;;;;;;;44.63;25.17;;;13.00;99.90;;;;;;4998022;28;20422;-72
2023/05/12 06:29:00;;;;;;;50.70;26.38;;;13.10;99.90;;;;;;4997333;28;20053;-73
2023/05/12 06:31:26;;;;;;;54.67;27.27;;;13.10;99.90;;;;;;4997217;28;20394;-73
2023/05/12 06:33:51;;;;;;;47.95;26.45;;;13.10;99.90;;;;;;4979809;28;20070;-71
2023/05/12 06:36:17;;;;;;;56.78;29.08;;;13.10;99.90;;;;;;4997139;28;20092;-72
2023/05/12 06:38:43;;;;;;;56.20;29.63;;;13.20;99.90;;;;;;4996128;28;20189;-72
2023/05/12 06:41:08;;;;;;;46.78;25.65;;;13.20;99.90;;;;;;4996732;28;20046;-72
2023/05/12 06:43:34;;;;;;;53.65;28.73;;;13.20;99.90;;;;;;4997481;28;20129;-71
2023/05/12 06:46:00;;;;;;;49.13;29.08;;;13.20;99.90;;;;;;4996958;28;20054;-72
2023/05/12 06:48:26;;;;;;;57.17;30.05;;;13.30;99.90;;;;;;4996907;28;20047;-71
2023/05/12 06:50:52;;;;;;;57.50;30.02;;;13.40;99.90;;;;;;4996921;28;20042;-72
2023/05/12 06:53:17;;;;;;;51.58;29.30;;;13.40;99.90;;;;;;4997367;28;20506;-72
2023/05/12 06:55:45;;;;;;;57.90;31.30;;;13.40;99.90;;;;;;4995381;28;20062;-72
2023/05/12 06:58:10;;;;;;;49.53;28.80;;;13.50;99.90;;;;;;4997008;28;20144;-72
2023/05/12 07:00:36;;;;;;;52.60;29.05;;;13.50;99.90;;;;;;4996740;28;20494;-72
2023/05/12 07:03:02;;;;;;;54.05;30.98;;;13.60;99.90;;;;;;4996529;28;20038;-72
2023/05/12 07:05:27;;;;;;;51.58;29.05;;;13.60;99.90;;;;;;4995646;28;20141;-72
2023/05/12 07:07:53;;;;;;;51.53;28.73;;;13.70;99.90;;;;;;4996604;28;20050;-73
2023/05/12 07:10:20;;;;;;;51.13;29.98;;;13.70;99.90;;;;;;4996231;28;20052;-73
2023/05/12 07:12:46;;;;;;;50.00;28.58;;;13.80;99.90;;;;;;4995024;28;20124;-73
2023/05/12 07:15:11;;;;;;;44.30;28.05;;;13.80;99.90;;;;;;4994434;28;20478;-72
2023/05/12 07:17:37;;;;;;;53.58;29.98;;;13.90;99.90;;;;;;4979999;28;20085;-73
2023/05/12 07:20:04;;;;;;;50.25;29.00;;;13.90;99.90;;;;;;4995392;28;20077;-72
2023/05/12 07:22:31;;;;;;;51.42;29.13;;;13.90;99.90;;;;;;4996257;28;20046;-72
2023/05/12 07:24:56;;;;;;;47.85;29.88;;;14.00;99.90;;;;;;4996718;28;20073;-73
2023/05/12 07:27:22;;;;;;;48.33;29.00;;;14.00;99.90;;;;;;4978922;28;20478;-73
2023/05/12 07:29:48;;;;;;;50.78;28.90;;;13.90;99.90;;;;;;4997142;28;20046;-71
2023/05/12 07:32:14;;;;;;;53.30;31.95;;;13.90;99.90;;;;;;4997699;28;20085;-71
2023/05/12 07:34:40;;;;;;;47.45;29.88;;;13.90;99.90;;;;;;4995063;28;20398;-72
2023/05/12 07:37:06;;;;;;;52.30;29.52;;;13.90;99.90;;;;;;4996206;28;20042;-71
2023/05/12 07:39:31;;;;;;;48.40;28.58;;;14.00;99.90;;;;;;4994935;28;20050;-70
2023/05/12 07:41:58;;;;;;;51.33;29.48;;;14.00;99.90;;;;;;4996043;28;20050;-70
2023/05/12 07:44:25;;;;;;;52.70;30.15;;;14.00;99.90;;;;;;4996446;28;20057;-71
2023/05/12 07:46:50;;;;;;;48.83;29.80;;;14.00;99.90;;;;;;4996242;28;20105;-71
2023/05/12 07:49:16;;;;;;;47.20;28.67;;;14.00;99.90;;;;;;4995965;28;20438;-72
2023/05/12 07:51:42;;;;;;;48.08;28.08;;;14.10;99.90;;;;;;4995559;28;20069;-71
2023/05/12 07:54:08;;;;;;;44.40;28.60;;;14.10;99.90;;;;;;4995792;28;20096;-72
2023/05/12 07:56:34;;;;;;;49.28;29.17;;;14.10;99.90;;;;;;4995441;28;20059;-73
2023/05/12 07:59:00;;;;;;;46.92;29.23;;;14.10;99.90;;;;;;4996911;28;20042;-69
2023/05/12 08:01:25;;;;;;;44.58;29.27;;;14.10;99.90;;;;;;4995987;28;20057;-72
2023/05/12 08:03:51;;;;;;;41.53;27.38;;;14.20;99.90;;;;;;4996383;28;20104;-72
2023/05/12 08:06:17;;;;;;;43.33;27.40;;;14.20;99.90;;;;;;4995643;28;20524;-71
2023/05/12 08:08:43;;;;;;;46.50;27.33;;;14.30;99.90;;;;;;4995515;28;20081;-73
2023/05/12 08:11:10;;;;;;;40.13;26.92;;;14.30;99.90;;;;;;4995451;28;20088;-72
2023/05/12 08:13:36;;;;;;;44.25;27.33;;;14.40;99.90;;;;;;4994232;28;20457;-73
2023/05/12 08:16:02;;;;;;;43.60;28.33;;;14.40;99.90;;;;;;4995403;28;20049;-72
2023/05/12 08:18:28;;;;;;;41.58;27.55;;;14.50;99.90;;;;;;4995574;28;20199;-72
2023/05/12 08:20:54;;;;;;;41.28;27.27;;;14.50;99.90;;;;;;4994672;28;20046;-71
2023/05/12 08:23:20;;;;;;;41.72;27.00;;;14.60;99.90;;;;;;4994193;28;20050;-71
2023/05/12 08:25:47;;;;;;;39.92;26.15;;;14.70;99.90;;;;;;4995062;28;20072;-72
2023/05/12 08:28:13;;;;;;;40.70;26.88;;;14.70;99.90;;;;;;4995081;28;20479;-73
2023/05/12 08:30:40;;;;;;;35.78;25.50;;;14.80;99.90;;;;;;4994236;28;20046;-70
2023/05/12 08:33:05;;;;;;;34.88;24.55;;;14.90;99.90;;;;;;4995207;28;20050;-72
2023/05/12 08:35:31;;;;;;;34.65;24.45;;;15.00;99.90;;;;;;4978044;28;20522;-73
2023/05/12 08:37:58;;;;;;;39.60;23.92;;;15.10;99.90;;;;;;4994410;28;20050;-72
2023/05/12 08:40:25;;;;;;;38.75;26.52;;;15.20;99.90;;;;;;4995720;28;20050;-72
2023/05/12 08:42:56;;;;;;;34.33;23.92;;;15.30;99.90;;;;;;4994032;28;20042;-71
2023/05/12 08:45:23;;;;;;;34.53;24.23;;;15.40;99.90;;;;;;4994005;28;20046;-72
2023/05/12 08:47:50;;;;;;;35.08;24.15;;;15.50;99.90;;;;;;4994875;28;20053;-72
2023/05/12 08:50:20;;;;;;;33.75;24.90;;;15.60;99.90;;;;;;4994553;28;20505;-72
2023/05/12 08:52:47;;;;;;;33.50;23.27;;;15.60;99.90;;;;;;4994784;28;20049;-72
2023/05/12 08:55:14;;;;;;;31.85;23.33;;;15.70;99.90;;;;;;4994690;28;20050;-73
2023/05/12 08:57:44;;;;;;;33.63;23.85;;;15.80;99.90;;;;;;4995001;28;20065;-73
2023/05/12 09:00:12;;;;;;;33.50;23.10;;;15.90;99.90;;;;;;4994956;28;20390;-71
2023/05/12 09:02:42;;;;;;;34.22;24.35;;;16.00;99.90;;;;;;4994515;28;20050;-71
2023/05/12 09:05:09;;;;;;;32.47;22.77;;;16.00;99.90;;;;;;4993600;28;20140;-71
2023/05/12 09:07:38;;;;;;;31.95;24.13;;;16.10;99.90;;;;;;4994590;28;20050;-72
2023/05/12 09:10:06;;;;;;;29.73;22.77;;;16.20;99.90;;;;;;4994713;28;20102;-71
2023/05/12 09:12:35;;;;;;;28.33;21.10;;;16.20;99.90;;;;;;4994545;28;20086;-72
2023/05/12 09:15:09;;;;;;;28.77;21.42;;;16.30;99.90;;;;;;4994466;28;20043;-72
2023/05/12 09:17:35;;;;;;;27.65;21.60;;;16.30;99.90;;;;;;4994501;28;20043;-71
2023/05/12 09:20:03;;;;;;;27.10;21.00;;;16.30;99.90;;;;;;4977024;28;20045;-69
2023/05/12 09:22:30;;;;;;;24.30;18.95;;;16.30;99.90;;;;;;4994859;28;20046;-70
2023/05/12 09:24:56;;;;;;;27.75;20.52;;;16.40;99.90;;;;;;4995152;28;20387;-71
2023/05/12 09:27:26;;;;;;;27.05;20.25;;;16.40;99.90;;;;;;4993200;28;20049;-72
2023/05/12 09:29:52;;;;;;;25.80;19.48;;;16.50;99.90;;;;;;4994312;28;20458;-71
2023/05/12 09:32:28;;;;;;;26.95;18.83;;;16.50;99.90;;;;;;4993332;28;20121;-72
2023/05/12 09:34:53;;;;;;;22.65;18.40;;;16.50;99.90;;;;;;4993324;28;20482;-72
2023/05/12 09:37:19;;;;;;;23.05;18.23;;;16.60;99.90;;;;;;4996388;28;20054;-71
2023/05/12 09:39:45;;;;;;;24.30;17.98;;;16.70;99.90;;;;;;4998273;28;20086;-71
2023/05/12 09:42:11;;;;;;;23.05;18.13;;;16.70;99.90;;;;;;4998167;28;20042;-73
2023/05/12 09:44:37;;;;;;;25.30;18.83;;;16.90;99.90;;;;;;4998195;28;20050;-72
2023/05/12 09:47:07;;;;;;;23.02;18.88;;;16.90;99.90;;;;;;4999036;28;20371;-72
2023/05/12 09:49:33;;;;;;;22.70;17.83;;;16.90;99.90;;;;;;4997532;28;20074;-73
2023/05/12 09:51:58;;;;;;;24.85;17.85;;;16.90;99.90;;;;;;4998509;28;20134;-72
2023/05/12 09:54:29;;;;;;;21.52;17.30;;;17.00;99.90;;;;;;4998208;28;20039;-69
2023/05/12 09:57:03;;;;;;;21.95;17.27;;;17.00;99.90;;;;;;4997795;28;20068;-73
2023/05/12 09:59:32;;;;;;;20.58;17.05;;;17.10;99.90;;;;;;4997889;28;20125;-72
2023/05/12 10:02:04;;;;;;;20.05;16.73;;;17.10;99.90;;;;;;4998572;28;20117;-72
2023/05/12 10:04:38;;;;;;;19.67;15.93;;;17.10;99.90;;;;;;4996820;28;20085;-73
2023/05/12 10:07:09;;;;;;;18.35;14.93;;;17.10;99.90;;;;;;4997264;28;20042;-72
2023/05/12 10:09:38;;;;;;;17.75;14.15;;;17.10;99.90;;;;;;4998408;28;20424;-73
2023/05/12 10:12:05;;;;;;;15.10;12.88;;;17.20;99.90;;;;;;4997805;28;20077;-71
2023/05/12 10:14:31;;;;;;;17.00;13.57;;;17.20;99.90;;;;;;4998638;28;20050;-71
2023/05/12 10:16:58;;;;;;;19.33;14.05;;;17.20;99.90;;;;;;4998813;28;20061;-73
2023/05/12 10:19:25;;;;;;;15.68;13.57;;;17.30;99.90;;;;;;4997624;28;20049;-73
2023/05/12 10:21:52;;;;;;;16.92;13.40;;;17.30;99.90;;;;;;4997827;28;20065;-73
2023/05/12 10:24:19;;;;;;;17.73;13.90;;;17.40;99.90;;;;;;4997293;28;20104;-71
2023/05/12 10:26:46;;;;;;;15.35;13.25;;;17.40;99.90;;;;;;4997862;28;20050;-71
2023/05/12 10:29:12;;;;;;;15.57;13.35;;;17.50;99.90;;;;;;4997252;28;20054;-71
2023/05/12 10:31:38;;;;;;;13.32;11.90;;;17.60;99.90;;;;;;4995967;28;20050;-71
2023/05/12 10:34:05;;;;;;;14.52;12.98;;;17.60;99.90;;;;;;4997174;28;20043;-72
2023/05/12 10:36:41;;;;;;;14.52;12.02;;;17.70;99.90;;;;;;4997083;28;20042;-72
2023/05/12 10:39:08;;;;;;;13.00;10.35;;;17.70;99.90;;;;;;4997911;28;20133;-71
2023/05/12 10:41:35;;;;;;;8.90;8.00;;;17.90;99.90;;;;;;4995717;28;20125;-71
2023/05/12 10:44:00;;;;;;;9.30;8.25;;;17.90;99.90;;;;;;4997495;28;20406;-71
2023/05/12 10:46:26;;;;;;;10.70;8.32;;;17.90;99.90;;;;;;4996934;28;20046;-72
2023/05/12 10:48:58;;;;;;;11.30;9.70;;;18.00;99.90;;;;;;4997020;28;20069;-72
2023/05/12 10:51:27;;;;;;;9.53;8.53;;;18.00;99.90;;;;;;4996131;28;20035;-72
2023/05/12 10:53:59;;;;;;;10.07;8.25;;;18.10;99.90;;;;;;4996961;28;20049;-73
2023/05/12 10:56:46;;;;;;;8.98;7.50;;;18.10;99.90;;;;;;4996737;28;20067;-70
2023/05/12 10:59:16;;;;;;;8.65;7.75;;;18.20;99.90;;;;;;4996716;28;20090;-72
2023/05/12 11:02:02;;;;;;;10.85;9.13;;;18.30;99.90;;;;;;4996847;28;20061;-73
2023/05/12 11:04:49;;;;;;;8.05;5.97;;;18.30;99.90;;;;;;4996760;28;20057;-71
2023/05/12 11:07:19;;;;;;;7.93;5.65;;;18.40;99.90;;;;;;4996944;28;20050;-71
2023/05/12 11:09:46;;;;;;;7.22;6.53;;;18.50;99.90;;;;;;4996364;28;20049;-72
2023/05/12 11:12:13;;;;;;;7.22;6.53;;;18.50;99.90;;;;;;4996649;28;20049;-71
2023/05/12 11:14:40;;;;;;;6.88;6.18;;;18.60;99.90;;;;;;4996511;28;20061;-72
2023/05/12 11:17:06;;;;;;;6.28;5.68;;;18.60;99.90;;;;;;4996586;28;20125;-72
2023/05/12 11:19:32;;;;;;;7.35;4.93;;;18.70;99.90;;;;;;4996753;28;20461;-73
2023/05/12 11:22:10;;;;;;;6.40;4.68;;;18.80;99.90;;;;;;4996533;28;20054;-72
2023/05/12 11:24:38;;;;;;;8.70;5.00;;;18.80;99.90;;;;;;4996973;28;20403;-72
2023/05/12 11:27:05;;;;;;;5.10;4.68;;;18.90;99.90;;;;;;4996671;28;20105;-71
2023/05/12 11:29:31;;;;;;;5.80;4.22;;;18.90;99.90;;;;;;4996896;28;20045;-72
2023/05/12 11:31:59;;;;;;;6.05;5.45;;;18.90;99.90;;;;;;4995064;28;20572;-72
2023/05/12 11:34:28;;;;;;;5.70;5.03;;;19.00;99.90;;;;;;4996273;28;20394;-72
2023/05/12 11:36:55;;;;;;;7.78;5.60;;;19.00;99.90;;;;;;4996191;28;20082;-72
2023/05/12 11:39:23;;;;;;;5.45;4.70;;;19.10;99.90;;;;;;4996152;28;20050;-73
2023/05/12 11:41:49;;;;;;;3.78;3.47;;;19.10;99.90;;;;;;4996086;28;20046;-73
2023/05/12 11:44:23;;;;;;;3.30;2.97;;;19.10;99.90;;;;;;4996005;28;20046;-73
2023/05/12 11:47:00;;;;;;;3.72;2.80;;;19.10;99.90;;;;;;4995944;28;20501;-73
2023/05/12 11:49:27;;;;;;;3.60;2.60;;;19.20;99.90;;;;;;4994778;28;20094;-72
2023/05/12 11:51:55;;;;;;;4.85;2.72;;;19.20;99.90;;;;;;4996426;28;20132;-73
2023/05/12 11:54:21;;;;;;;4.25;2.75;;;19.30;99.90;;;;;;4996671;28;20065;-73
2023/05/12 11:56:52;;;;;;;5.00;2.72;;;19.30;99.90;;;;;;4995538;28;20517;-73
2023/05/12 11:59:32;;;;;;;4.03;2.70;;;19.40;99.90;;;;;;4995113;28;20058;-73
2023/05/12 12:01:59;;;;;;;4.10;2.95;;;19.50;99.90;;;;;;4996536;28;20124;-73
2023/05/12 12:04:37;;;;;;;4.28;3.17;;;19.50;99.90;;;;;;4995618;28;20042;-73
2023/05/12 12:07:07;;;;;;;2.92;2.72;;;19.60;99.90;;;;;;4995650;28;20050;-74
2023/05/12 12:09:39;;;;;;;3.70;3.33;;;19.60;99.90;;;;;;4995437;28;20061;-72
2023/05/12 12:12:06;;;;;;;6.45;3.45;;;19.70;99.90;;;;;;4995816;28;20096;-73
2023/05/12 12:14:33;;;;;;;4.22;2.85;;;19.80;99.90;;;;;;4995461;28;20489;-73
2023/05/12 12:16:59;;;;;;;2.65;2.05;;;19.90;99.90;;;;;;4995125;28;20042;-73
2023/05/12 12:19:26;;;;;;;2.47;2.28;;;19.90;99.90;;;;;;4995106;28;20046;-67
2023/05/12 12:21:52;;;;;;;5.32;2.28;;;20.00;99.90;;;;;;4995614;28;20050;-74
2023/05/12 12:24:18;;;;;;;2.70;2.15;;;20.10;99.90;;;;;;4995469;28;20054;-74
2023/05/12 12:26:44;;;;;;;3.38;2.05;;;20.20;99.90;;;;;;4995079;28;20133;-71
2023/05/12 12:29:09;;;;;;;3.08;2.20;;;20.20;99.90;;;;;;4994494;28;20054;-74